createdAt,value
2023-05-05T00:00:12.134Z,1.17
2023-05-05T00:01:12.192Z,1.23
2023-05-05T00:02:12.275Z,1.21
2023-05-05T00:03:12.325Z,1.20
2023-05-05T00:04:12.370Z,1.24
2023-05-05T00:05:12.400Z,1.23
2023-05-05T00:06:12.444Z,1.29
2023-05-05T00:07:12.508Z,1.25
2023-05-05T00:08:12.557Z,1.28
2023-05-05T00:09:12.640Z,1.28
2023-05-05T00:10:12.672Z,1.30
2023-05-05T00:11:12.742Z,1.29
2023-05-05T00:12:12.755Z,1.33
2023-05-05T00:13:12.914Z,1.38
2023-05-05T00:14:12.867Z,1.40
2023-05-05T00:15:12.940Z,1.37
2023-05-05T00:16:12.996Z,1.42
2023-05-05T00:17:13.125Z,1.47
2023-05-05T00:18:13.087Z,1.46
2023-05-05T00:19:13.131Z,1.52
2023-05-05T00:20:13.169Z,1.44
2023-05-05T00:21:13.231Z,1.44
2023-05-05T00:22:13.282Z,1.40
2023-05-05T00:23:13.314Z,1.37
2023-05-05T00:24:13.362Z,1.37
2023-05-05T00:25:13.434Z,1.32
2023-05-05T00:26:13.497Z,1.31
2023-05-05T00:27:13.521Z,1.33
2023-05-05T00:28:13.621Z,1.24
2023-05-05T00:29:13.642Z,1.28
2023-05-05T00:30:13.720Z,1.33
2023-05-05T00:31:13.791Z,1.30
2023-05-05T00:32:13.840Z,1.28
2023-05-05T00:33:13.849Z,1.36
2023-05-05T00:34:13.895Z,1.28
2023-05-05T00:35:13.958Z,1.33
2023-05-05T00:36:14.034Z,1.28
2023-05-05T00:37:14.116Z,1.27
2023-05-05T00:38:14.174Z,1.22
2023-05-05T00:39:14.196Z,1.23
2023-05-05T00:40:14.244Z,1.19
2023-05-05T00:41:14.294Z,1.18
2023-05-05T00:42:14.365Z,1.21
2023-05-05T00:43:14.422Z,1.14
2023-05-05T00:44:14.468Z,1.13
2023-05-05T00:45:14.535Z,1.16
2023-05-05T00:46:14.635Z,1.15
2023-05-05T00:47:14.632Z,1.17
2023-05-05T00:48:14.724Z,1.19
2023-05-05T00:49:14.856Z,1.12
2023-05-05T00:50:14.815Z,1.15
2023-05-05T00:51:14.889Z,1.15
2023-05-05T00:52:14.953Z,1.16
2023-05-05T00:53:15.007Z,1.19
2023-05-05T00:54:15.068Z,1.14
2023-05-05T00:55:15.164Z,1.14
2023-05-05T00:56:15.224Z,1.15
2023-05-05T00:57:15.310Z,1.20
2023-05-05T00:58:15.325Z,1.20
2023-05-05T00:59:15.396Z,1.19
2023-05-05T01:00:15.439Z,1.15
2023-05-05T01:01:15.651Z,1.29
2023-05-05T01:02:15.544Z,1.25
2023-05-05T01:03:15.777Z,1.37
2023-05-05T01:04:15.702Z,1.27
2023-05-05T01:05:15.759Z,1.25
2023-05-05T01:06:15.823Z,1.29
2023-05-05T01:07:15.891Z,1.37
2023-05-05T01:08:16.804Z,1.26
2023-05-05T01:09:16.030Z,1.29
2023-05-05T01:10:20.427Z,1.28
2023-05-05T01:11:16.061Z,1.29
2023-05-05T01:12:16.049Z,1.29
2023-05-05T01:13:16.069Z,1.27
2023-05-05T01:14:16.052Z,1.22
2023-05-05T01:15:16.013Z,1.21
2023-05-05T01:16:16.034Z,1.18
2023-05-05T01:17:16.008Z,1.19
2023-05-05T01:18:15.994Z,1.26
2023-05-05T01:19:15.975Z,1.23
2023-05-05T01:20:15.988Z,1.19
2023-05-05T01:21:16.020Z,1.22
2023-05-05T01:22:15.979Z,1.16
2023-05-05T01:23:16.055Z,1.15
2023-05-05T01:24:16.099Z,1.18
2023-05-05T01:25:16.165Z,1.18
2023-05-05T01:26:16.209Z,1.17
2023-05-05T01:27:16.287Z,1.18
2023-05-05T01:28:16.370Z,1.14
2023-05-05T01:29:16.409Z,1.15
2023-05-05T01:30:16.449Z,1.23
2023-05-05T01:31:16.536Z,1.18
2023-05-05T01:32:16.592Z,1.17
2023-05-05T01:33:16.617Z,1.21
2023-05-05T01:34:16.695Z,1.20
2023-05-05T01:35:16.753Z,1.13
2023-05-05T01:36:16.776Z,1.17
2023-05-05T01:37:16.865Z,1.17
2023-05-05T01:38:16.926Z,1.18
2023-05-05T01:39:16.998Z,1.17
2023-05-05T01:40:17.008Z,1.18
2023-05-05T01:41:17.057Z,1.18
2023-05-05T01:42:17.132Z,1.18
2023-05-05T01:43:17.163Z,1.13
2023-05-05T01:44:17.256Z,1.15
2023-05-05T01:45:17.318Z,1.13
2023-05-05T01:46:17.405Z,1.21
2023-05-05T01:47:17.402Z,1.11
2023-05-05T01:48:17.399Z,1.14
2023-05-05T01:49:17.489Z,1.13
2023-05-05T01:50:17.506Z,1.08
2023-05-05T01:51:17.597Z,1.10
2023-05-05T01:52:17.656Z,1.10
2023-05-05T01:53:17.687Z,1.09
2023-05-05T01:54:17.731Z,1.06
2023-05-05T01:55:17.732Z,1.07
2023-05-05T01:56:17.774Z,1.13
2023-05-05T01:57:17.781Z,1.07
2023-05-05T01:58:17.832Z,1.09
2023-05-05T01:59:17.879Z,1.12
2023-05-05T02:00:17.872Z,1.02
2023-05-05T02:01:17.905Z,1.10
2023-05-05T02:02:17.927Z,1.10
2023-05-05T02:03:17.976Z,1.15
2023-05-05T02:04:17.934Z,1.13
2023-05-05T02:05:17.960Z,1.19
2023-05-05T02:06:17.999Z,1.20
2023-05-05T02:07:17.995Z,1.19
2023-05-05T02:08:18.073Z,1.17
2023-05-05T02:09:18.067Z,1.16
2023-05-05T02:10:18.149Z,1.20
2023-05-05T02:11:18.165Z,1.14
2023-05-05T02:12:18.226Z,1.15
2023-05-05T02:13:18.363Z,1.16
2023-05-05T02:14:18.239Z,1.12
2023-05-05T02:15:18.250Z,1.08
2023-05-05T02:16:18.433Z,1.10
2023-05-05T02:17:18.276Z,1.11
2023-05-05T02:18:18.261Z,1.08
2023-05-05T02:19:18.272Z,1.16
2023-05-05T02:20:18.285Z,1.19
2023-05-05T02:21:18.308Z,1.09
2023-05-05T02:22:18.301Z,1.15
2023-05-05T02:23:18.263Z,1.19
2023-05-05T02:24:18.411Z,1.17
2023-05-05T02:25:18.311Z,1.23
2023-05-05T02:26:18.319Z,1.18
2023-05-05T02:27:18.341Z,1.26
2023-05-05T02:28:18.290Z,1.27
2023-05-05T02:29:18.314Z,1.22
2023-05-05T02:30:18.331Z,1.27
2023-05-05T02:31:18.391Z,1.23
2023-05-05T02:32:18.337Z,1.16
2023-05-05T02:33:18.317Z,1.24
2023-05-05T02:34:18.311Z,1.21
2023-05-05T02:35:18.320Z,1.24
2023-05-05T02:36:18.310Z,1.27
2023-05-05T02:37:18.332Z,1.27
2023-05-05T02:38:18.336Z,1.25
2023-05-05T02:39:18.316Z,1.24
2023-05-05T02:40:18.297Z,1.25
2023-05-05T02:41:18.305Z,1.30
2023-05-05T02:42:18.289Z,1.32
2023-05-05T02:43:18.396Z,1.33
2023-05-05T02:44:18.311Z,1.35
2023-05-05T02:45:18.309Z,1.37
2023-05-05T02:46:18.352Z,1.36
2023-05-05T02:47:18.315Z,1.41
2023-05-05T02:48:18.317Z,1.40
2023-05-05T02:49:18.272Z,1.34
2023-05-05T02:50:18.320Z,1.31
2023-05-05T02:51:18.281Z,1.29
2023-05-05T02:52:18.288Z,1.28
2023-05-05T02:53:18.287Z,1.31
2023-05-05T02:54:18.278Z,1.35
2023-05-05T02:55:18.278Z,1.35
2023-05-05T02:56:18.246Z,1.35
2023-05-05T02:57:18.301Z,1.30
2023-05-05T02:58:18.267Z,1.32
2023-05-05T02:59:18.279Z,1.27
2023-05-05T03:00:18.275Z,1.23
2023-05-05T03:01:18.346Z,1.29
2023-05-05T03:02:18.286Z,1.30
2023-05-05T03:03:18.408Z,1.33
2023-05-05T03:04:18.282Z,1.34
2023-05-05T03:05:18.330Z,1.36
2023-05-05T03:06:18.301Z,1.36
2023-05-05T03:07:18.322Z,1.37
2023-05-05T03:08:18.321Z,1.39
2023-05-05T03:09:18.336Z,1.42
2023-05-05T03:10:18.297Z,1.40
2023-05-05T03:11:18.305Z,1.40
2023-05-05T03:12:18.319Z,1.42
2023-05-05T03:13:18.282Z,1.44
2023-05-05T03:14:18.330Z,1.41
2023-05-05T03:15:18.303Z,1.47
2023-05-05T03:16:18.332Z,1.47
2023-05-05T03:17:18.302Z,1.47
2023-05-05T03:18:18.290Z,1.48
2023-05-05T03:19:18.271Z,1.44
2023-05-05T03:20:18.270Z,1.47
2023-05-05T03:21:18.306Z,1.42
2023-05-05T03:22:18.294Z,1.48
2023-05-05T03:23:18.327Z,1.43
2023-05-05T03:24:18.298Z,1.48
2023-05-05T03:25:18.308Z,1.48
2023-05-05T03:26:18.292Z,1.44
2023-05-05T03:27:18.308Z,1.51
2023-05-05T03:28:18.316Z,1.54
2023-05-05T03:29:18.282Z,1.51
2023-05-05T03:30:18.294Z,1.49
2023-05-05T03:31:18.398Z,1.49
2023-05-05T03:32:18.309Z,1.51
2023-05-05T03:33:18.267Z,1.49
2023-05-05T03:34:18.246Z,1.45
2023-05-05T03:35:18.257Z,1.38
2023-05-05T03:36:18.262Z,1.39
2023-05-05T03:37:18.230Z,1.40
2023-05-05T03:38:18.276Z,1.38
2023-05-05T03:39:18.295Z,1.44
2023-05-05T03:40:18.299Z,1.45
2023-05-05T03:41:18.370Z,1.41
2023-05-05T03:42:18.262Z,1.46
2023-05-05T03:43:18.331Z,1.47
2023-05-05T03:44:18.283Z,1.51
2023-05-05T03:45:18.285Z,1.50
2023-05-05T03:46:18.446Z,1.47
2023-05-05T03:47:18.299Z,1.45
2023-05-05T03:48:18.324Z,1.47
2023-05-05T03:49:18.348Z,1.46
2023-05-05T03:50:18.361Z,1.48
2023-05-05T03:51:18.356Z,1.49
2023-05-05T03:52:18.403Z,1.50
2023-05-05T03:53:18.420Z,1.49
2023-05-05T03:54:18.411Z,1.53
2023-05-05T03:55:18.433Z,1.52
2023-05-05T03:56:18.464Z,1.53
2023-05-05T03:57:18.479Z,1.54
2023-05-05T03:58:18.483Z,1.55
2023-05-05T03:59:18.494Z,1.55
2023-05-05T04:00:18.500Z,1.57
2023-05-05T04:01:18.500Z,1.60
2023-05-05T04:02:18.937Z,1.65
2023-05-05T04:03:18.644Z,1.62
2023-05-05T04:04:18.652Z,1.62
2023-05-05T04:05:18.563Z,1.63
2023-05-05T04:06:18.638Z,1.65
2023-05-05T04:07:18.634Z,1.63
2023-05-05T04:08:18.644Z,1.61
2023-05-05T04:09:18.677Z,1.61
2023-05-05T04:10:18.698Z,1.60
2023-05-05T04:11:18.669Z,1.60
2023-05-05T04:12:18.764Z,1.61
2023-05-05T04:13:18.755Z,1.60
2023-05-05T04:14:18.724Z,1.62
2023-05-05T04:15:18.736Z,1.63
2023-05-05T04:16:18.784Z,1.66
2023-05-05T04:17:18.740Z,1.64
2023-05-05T04:18:18.727Z,1.63
2023-05-05T04:19:18.781Z,1.61
2023-05-05T04:20:18.788Z,1.59
2023-05-05T04:21:18.792Z,1.64
2023-05-05T04:22:18.781Z,1.65
2023-05-05T04:23:18.812Z,1.63
2023-05-05T04:24:18.793Z,1.67
2023-05-05T04:25:18.821Z,1.70
2023-05-05T04:26:18.796Z,1.70
2023-05-05T04:27:18.845Z,1.69
2023-05-05T04:28:20.951Z,1.67
2023-05-05T04:29:18.797Z,1.73
2023-05-05T04:30:18.810Z,1.72
2023-05-05T04:31:18.859Z,1.71
2023-05-05T04:32:18.782Z,1.70
2023-05-05T04:33:18.779Z,1.72
2023-05-05T04:34:18.739Z,1.69
2023-05-05T04:35:18.740Z,1.69
2023-05-05T04:36:18.741Z,1.61
2023-05-05T04:37:18.726Z,1.62
2023-05-05T04:38:18.756Z,1.68
2023-05-05T04:39:18.734Z,1.66
2023-05-05T04:40:18.748Z,1.65
2023-05-05T04:41:18.730Z,1.66
2023-05-05T04:42:18.697Z,1.68
2023-05-05T04:43:18.705Z,1.68
2023-05-05T04:44:18.685Z,1.60
2023-05-05T04:45:18.695Z,1.64
2023-05-05T04:46:18.702Z,1.64
2023-05-05T04:47:18.654Z,1.63
2023-05-05T04:48:18.682Z,1.63
2023-05-05T04:49:18.669Z,1.60
2023-05-05T04:50:18.684Z,1.52
2023-05-05T04:51:18.673Z,1.59
2023-05-05T04:52:18.612Z,1.61
2023-05-05T04:53:18.605Z,1.65
2023-05-05T04:54:18.616Z,1.64
2023-05-05T04:55:18.656Z,1.66
2023-05-05T04:56:18.632Z,1.74
2023-05-05T04:57:18.601Z,1.78
2023-05-05T04:58:18.607Z,1.75
2023-05-05T04:59:18.629Z,1.80
2023-05-05T05:00:18.578Z,1.82
2023-05-05T05:01:18.589Z,1.85
2023-05-05T05:02:18.590Z,1.87
2023-05-05T05:03:18.645Z,1.87
2023-05-05T05:04:18.720Z,1.87
2023-05-05T05:05:18.540Z,1.82
2023-05-05T05:06:18.558Z,1.87
2023-05-05T05:07:18.536Z,1.77
2023-05-05T05:08:18.503Z,1.76
2023-05-05T05:09:18.485Z,1.80
2023-05-05T05:10:18.493Z,1.78
2023-05-05T05:11:18.476Z,1.74
2023-05-05T05:12:18.492Z,1.78
2023-05-05T05:13:18.690Z,1.85
2023-05-05T05:14:18.493Z,1.83
2023-05-05T05:15:18.478Z,1.83
2023-05-05T05:16:18.533Z,1.89
2023-05-05T05:17:18.489Z,1.83
2023-05-05T05:18:18.469Z,1.89
2023-05-05T05:19:18.453Z,1.87
2023-05-05T05:20:18.439Z,1.82
2023-05-05T05:21:18.413Z,1.97
2023-05-05T05:22:18.432Z,1.96
2023-05-05T05:23:19.389Z,1.94
2023-05-05T05:24:18.416Z,1.88
2023-05-05T05:25:18.385Z,1.96
2023-05-05T05:26:18.389Z,1.95
2023-05-05T05:27:18.398Z,1.84
2023-05-05T05:28:18.373Z,1.86
2023-05-05T05:29:18.353Z,1.92
2023-05-05T05:30:18.341Z,1.95
2023-05-05T05:31:18.359Z,1.92
2023-05-05T05:32:18.372Z,1.95
2023-05-05T05:33:18.325Z,1.95
2023-05-05T05:34:18.333Z,1.96
2023-05-05T05:35:18.337Z,1.97
2023-05-05T05:36:18.303Z,2.02
2023-05-05T05:37:18.284Z,2.57
2023-05-05T05:38:18.312Z,2.65
2023-05-05T05:39:18.291Z,2.46
2023-05-05T05:40:18.323Z,2.34
2023-05-05T05:41:18.284Z,2.27
2023-05-05T05:42:18.320Z,2.31
2023-05-05T05:43:18.291Z,2.33
2023-05-05T05:44:18.232Z,2.38
2023-05-05T05:45:18.262Z,2.43
2023-05-05T05:46:18.276Z,2.63
2023-05-05T05:47:18.240Z,2.59
2023-05-05T05:48:18.218Z,2.76
2023-05-05T05:49:18.230Z,2.76
2023-05-05T05:50:18.208Z,3.09
2023-05-05T05:51:18.217Z,2.97
2023-05-05T05:52:18.192Z,3.22
2023-05-05T05:53:18.179Z,3.51
2023-05-05T05:54:18.183Z,3.35
2023-05-05T05:55:18.254Z,3.74
2023-05-05T05:56:18.167Z,3.88
2023-05-05T05:57:18.142Z,3.94
2023-05-05T05:58:18.178Z,3.74
2023-05-05T05:59:18.158Z,3.82
2023-05-05T06:00:18.158Z,3.56
2023-05-05T06:01:18.154Z,3.46
2023-05-05T06:02:18.188Z,3.50
2023-05-05T06:03:18.217Z,3.75
2023-05-05T06:04:18.173Z,3.71
2023-05-05T06:05:18.172Z,3.83
2023-05-05T06:06:18.417Z,3.84
2023-05-05T06:07:18.224Z,3.77
2023-05-05T06:08:18.246Z,3.80
2023-05-05T06:09:18.285Z,3.62
2023-05-05T06:10:26.500Z,3.65
2023-05-05T06:11:19.306Z,3.66
2023-05-05T06:12:18.277Z,3.67
2023-05-05T06:13:18.313Z,3.77
2023-05-05T06:14:19.948Z,3.77
2023-05-05T06:15:18.258Z,3.84
2023-05-05T06:16:18.269Z,3.77
2023-05-05T06:17:18.291Z,3.78
2023-05-05T06:18:18.268Z,3.63
2023-05-05T06:19:18.249Z,3.73
2023-05-05T06:20:18.237Z,3.25
2023-05-05T06:21:18.220Z,3.44
2023-05-05T06:22:18.251Z,3.46
2023-05-05T06:23:18.207Z,3.46
2023-05-05T06:24:18.175Z,3.51
2023-05-05T06:25:18.213Z,3.44
2023-05-05T06:26:18.153Z,3.46
2023-05-05T06:27:18.386Z,3.53
2023-05-05T06:28:18.189Z,3.31
2023-05-05T06:29:18.178Z,3.35
2023-05-05T06:30:18.155Z,3.36
2023-05-05T06:31:18.220Z,3.20
2023-05-05T06:32:18.156Z,3.17
2023-05-05T06:33:18.159Z,2.99
2023-05-05T06:34:18.164Z,2.87
2023-05-05T06:35:18.193Z,2.85
2023-05-05T06:36:18.228Z,2.69
2023-05-05T06:37:18.604Z,2.60
2023-05-05T06:38:18.193Z,2.51
2023-05-05T06:39:18.196Z,2.39
2023-05-05T06:40:18.197Z,2.48
2023-05-05T06:41:18.231Z,2.47
2023-05-05T06:42:18.262Z,2.32
2023-05-05T06:43:18.205Z,2.33
2023-05-05T06:44:18.193Z,2.31
2023-05-05T06:45:18.192Z,2.21
2023-05-05T06:46:18.181Z,2.25
2023-05-05T06:47:18.432Z,2.15
2023-05-05T06:48:18.254Z,2.12
2023-05-05T06:49:18.198Z,2.19
2023-05-05T06:50:18.206Z,2.37
2023-05-05T06:51:18.151Z,2.36
2023-05-05T06:52:18.192Z,2.71
2023-05-05T06:53:18.215Z,2.88
2023-05-05T06:54:18.244Z,3.37
2023-05-05T06:55:18.276Z,3.59
2023-05-05T06:56:18.333Z,3.67
2023-05-05T06:57:18.385Z,3.80
2023-05-05T06:58:18.357Z,3.76
2023-05-05T06:59:18.430Z,3.70
2023-05-05T07:00:18.482Z,3.84
2023-05-05T07:01:18.670Z,4.06
2023-05-05T07:02:18.626Z,3.91
2023-05-05T07:03:18.764Z,4.02
2023-05-05T07:04:18.998Z,3.20
2023-05-05T07:05:18.798Z,2.75
2023-05-05T07:06:18.842Z,2.30
2023-05-05T07:07:18.921Z,1.95
2023-05-05T07:08:19.038Z,1.31
2023-05-05T07:09:19.012Z,0.91
2023-05-05T07:10:19.048Z,0.87
2023-05-05T07:11:19.035Z,0.65
2023-05-05T07:12:19.090Z,0.76
2023-05-05T07:13:19.101Z,0.59
2023-05-05T07:14:19.592Z,0.60
2023-05-05T07:15:28.098Z,0.68
2023-05-05T07:16:20.125Z,0.68
2023-05-05T07:17:19.097Z,0.69
2023-05-05T07:18:19.066Z,0.69
2023-05-05T07:19:19.101Z,0.70
2023-05-05T07:20:19.240Z,0.68
2023-05-05T07:21:19.038Z,0.57
2023-05-05T07:22:19.086Z,0.61
2023-05-05T07:23:19.058Z,0.54
2023-05-05T07:24:19.033Z,0.54
2023-05-05T07:25:19.008Z,0.50
2023-05-05T07:26:19.046Z,0.61
2023-05-05T07:27:19.045Z,0.72
2023-05-05T07:28:19.009Z,0.84
2023-05-05T07:29:19.016Z,0.74
2023-05-05T07:30:19.458Z,0.62
2023-05-05T07:31:19.008Z,0.52
2023-05-05T07:32:19.066Z,0.45
2023-05-05T07:33:19.007Z,0.50
2023-05-05T07:34:18.989Z,0.51
2023-05-05T07:35:19.039Z,0.54
2023-05-05T07:36:19.241Z,0.56
2023-05-05T07:37:19.459Z,0.50
2023-05-05T07:38:19.085Z,0.55
2023-05-05T07:39:22.883Z,0.48
2023-05-05T07:40:19.090Z,0.49
2023-05-05T07:41:19.074Z,0.35
2023-05-05T07:42:19.447Z,0.34
2023-05-05T07:43:19.059Z,0.34
2023-05-05T07:44:19.084Z,0.34
2023-05-05T07:45:19.092Z,0.34
2023-05-05T07:46:19.286Z,0.34
2023-05-05T07:47:19.482Z,0.34
2023-05-05T07:48:19.038Z,0.34
2023-05-05T07:49:19.061Z,0.34
2023-05-05T07:50:19.050Z,0.34
2023-05-05T07:51:19.002Z,0.34
2023-05-05T07:52:21.477Z,0.34
2023-05-05T07:53:20.196Z,0.34
2023-05-05T07:54:19.001Z,0.34
2023-05-05T07:55:18.999Z,0.34
2023-05-05T07:56:19.893Z,0.35
2023-05-05T07:57:19.165Z,0.34
2023-05-05T07:58:19.218Z,0.37
2023-05-05T07:59:19.223Z,0.48
2023-05-05T08:00:19.294Z,0.54
2023-05-05T08:01:19.371Z,0.63
2023-05-05T08:02:19.368Z,0.61
2023-05-05T08:03:19.372Z,0.53
2023-05-05T08:04:19.389Z,0.54
2023-05-05T08:05:19.392Z,0.60
2023-05-05T08:06:19.411Z,0.64
2023-05-05T08:07:19.436Z,0.74
2023-05-05T08:08:19.583Z,0.65
2023-05-05T08:09:19.516Z,0.59
2023-05-05T08:10:19.495Z,0.75
2023-05-05T08:11:19.529Z,0.69
2023-05-05T08:12:19.566Z,0.80
2023-05-05T08:13:19.644Z,0.76
2023-05-05T08:14:19.566Z,0.85
2023-05-05T08:15:19.563Z,1.17
2023-05-05T08:16:19.609Z,1.17
2023-05-05T08:17:19.573Z,1.56
2023-05-05T08:18:19.577Z,2.06
2023-05-05T08:19:28.829Z,2.43
2023-05-05T08:20:20.596Z,2.19
2023-05-05T08:21:19.551Z,2.30
2023-05-05T08:22:19.544Z,2.49
2023-05-05T08:23:19.570Z,2.29
2023-05-05T08:24:19.610Z,2.29
2023-05-05T08:25:19.522Z,2.04
2023-05-05T08:26:19.508Z,2.18
2023-05-05T08:27:19.495Z,2.65
2023-05-05T08:28:19.614Z,2.68
2023-05-05T08:29:19.485Z,3.05
2023-05-05T08:30:19.490Z,3.15
2023-05-05T08:31:19.560Z,3.10
2023-05-05T08:32:19.572Z,3.05
2023-05-05T08:33:19.550Z,2.28
2023-05-05T08:34:19.593Z,1.58
2023-05-05T08:35:19.599Z,1.53
2023-05-05T08:36:19.641Z,1.19
2023-05-05T08:37:19.659Z,1.47
2023-05-05T08:38:19.659Z,1.95
2023-05-05T08:39:19.666Z,2.86
2023-05-05T08:40:19.754Z,1.91
2023-05-05T08:41:19.829Z,2.09
2023-05-05T08:42:35.657Z,2.49
2023-05-05T08:43:20.711Z,2.53
2023-05-05T08:44:19.690Z,2.04
2023-05-05T08:45:19.668Z,1.71
2023-05-05T08:46:19.701Z,2.16
2023-05-05T08:47:20.025Z,2.84
2023-05-05T08:48:19.764Z,3.65
2023-05-05T08:49:19.847Z,5.01
2023-05-05T08:50:19.915Z,5.75
2023-05-05T08:51:19.984Z,6.19
2023-05-05T08:52:20.507Z,7.22
2023-05-05T08:53:20.070Z,4.53
2023-05-05T08:54:20.097Z,2.89
2023-05-05T08:55:20.174Z,1.86
2023-05-05T08:56:20.396Z,1.22
2023-05-05T08:57:20.293Z,1.82
2023-05-05T08:58:20.363Z,2.29
2023-05-05T08:59:20.455Z,4.18
2023-05-05T09:00:20.551Z,5.62
2023-05-05T09:01:20.589Z,6.80
2023-05-05T09:02:20.643Z,8.15
2023-05-05T09:03:20.667Z,9.11
2023-05-05T09:04:20.709Z,10.89
2023-05-05T09:05:20.759Z,12.20
2023-05-05T09:06:20.784Z,13.36
2023-05-05T09:07:20.968Z,13.86
2023-05-05T09:08:20.833Z,15.64
2023-05-05T09:09:20.893Z,17.85
2023-05-05T09:10:20.927Z,19.11
2023-05-05T09:11:20.932Z,20.42
2023-05-05T09:12:20.999Z,21.28
2023-05-05T09:13:21.034Z,21.62
2023-05-05T09:14:20.972Z,24.09
2023-05-05T09:15:20.991Z,25.11
2023-05-05T09:16:21.009Z,27.30
2023-05-05T09:17:21.051Z,28.67
2023-05-05T09:18:21.006Z,30.02
2023-05-05T09:19:21.014Z,30.82
2023-05-05T09:20:21.065Z,32.80
2023-05-05T09:21:21.014Z,34.39
2023-05-05T09:22:21.507Z,35.97
2023-05-05T09:23:21.087Z,36.16
2023-05-05T09:24:21.055Z,38.01
2023-05-05T09:25:21.070Z,38.94
2023-05-05T09:26:21.044Z,41.56
2023-05-05T09:27:21.024Z,45.18
2023-05-05T09:28:21.626Z,46.13
2023-05-05T09:29:21.048Z,48.55
2023-05-05T09:30:21.159Z,50.24
2023-05-05T09:31:21.060Z,53.80
2023-05-05T09:32:21.065Z,57.13
2023-05-05T09:33:21.057Z,57.53
2023-05-05T09:34:21.051Z,57.54
2023-05-05T09:35:21.100Z,59.85
2023-05-05T09:36:21.147Z,61.55
2023-05-05T09:37:21.177Z,63.57
2023-05-05T09:38:21.255Z,64.68
2023-05-05T09:39:21.290Z,67.73
2023-05-05T09:40:21.449Z,70.28
2023-05-05T09:41:21.389Z,71.49
2023-05-05T09:42:21.522Z,74.33
2023-05-05T09:43:22.063Z,82.40
2023-05-05T09:44:21.702Z,87.31
2023-05-05T09:45:21.645Z,84.33
2023-05-05T09:46:21.661Z,83.49
2023-05-05T09:47:29.560Z,86.77
2023-05-05T09:48:23.000Z,80.19
2023-05-05T09:49:21.667Z,61.32
2023-05-05T09:50:22.402Z,61.13
2023-05-05T09:51:21.695Z,59.01
2023-05-05T09:52:21.703Z,57.73
2023-05-05T09:53:21.668Z,56.85
2023-05-05T09:54:21.649Z,56.25
2023-05-05T09:55:21.660Z,53.93
2023-05-05T09:56:21.652Z,52.34
2023-05-05T09:57:21.624Z,49.89
2023-05-05T09:58:22.001Z,50.57
2023-05-05T09:59:21.631Z,50.30
2023-05-05T10:00:21.810Z,49.93
2023-05-05T10:01:21.624Z,52.92
2023-05-05T10:02:21.573Z,52.81
2023-05-05T10:03:21.974Z,53.59
2023-05-05T10:04:21.614Z,49.34
2023-05-05T10:05:21.603Z,48.29
2023-05-05T10:06:21.594Z,49.05
2023-05-05T10:07:21.585Z,50.95
2023-05-05T10:08:21.980Z,53.17
2023-05-05T10:09:21.572Z,51.79
2023-05-05T10:10:21.540Z,53.85
2023-05-05T10:11:21.549Z,53.06
2023-05-05T10:12:21.542Z,53.98
2023-05-05T10:13:21.580Z,53.81
2023-05-05T10:14:21.546Z,53.75
2023-05-05T10:15:21.587Z,53.22
2023-05-05T10:16:21.571Z,54.79
2023-05-05T10:17:21.506Z,57.81
2023-05-05T10:18:21.532Z,57.42
2023-05-05T10:19:21.552Z,56.34
2023-05-05T10:20:21.440Z,56.44
2023-05-05T10:21:21.469Z,55.58
2023-05-05T10:22:21.476Z,57.66
2023-05-05T10:23:21.498Z,56.08
2023-05-05T10:24:21.460Z,56.49
2023-05-05T10:25:21.448Z,56.02
2023-05-05T10:26:21.472Z,55.28
2023-05-05T10:27:21.465Z,56.97
2023-05-05T10:28:21.476Z,55.91
2023-05-05T10:29:21.505Z,55.84
2023-05-05T10:30:21.547Z,55.00
2023-05-05T10:31:26.354Z,53.02
2023-05-05T10:32:50.897Z,53.10
2023-05-05T10:34:21.519Z,53.17
2023-05-05T10:35:21.503Z,53.02
2023-05-05T10:36:21.588Z,49.99
2023-05-05T10:37:21.482Z,46.09
2023-05-05T10:38:21.457Z,40.91
2023-05-05T10:39:21.443Z,34.31
2023-05-05T10:40:21.454Z,39.04
2023-05-05T10:41:21.455Z,39.33
2023-05-05T10:42:21.435Z,43.29
2023-05-05T10:43:21.432Z,38.63
2023-05-05T10:44:21.420Z,37.04
2023-05-05T10:45:21.452Z,37.80
2023-05-05T10:46:21.442Z,44.46
2023-05-05T10:47:21.408Z,49.08
2023-05-05T10:48:21.546Z,41.00
2023-05-05T10:49:21.386Z,35.55
2023-05-05T10:50:21.379Z,28.12
2023-05-05T10:51:31.043Z,26.01
2023-05-05T10:52:22.368Z,26.11
2023-05-05T10:53:21.370Z,26.06
2023-05-05T10:54:21.436Z,22.14
2023-05-05T10:55:21.399Z,23.67
2023-05-05T10:56:21.313Z,26.07
2023-05-05T10:57:21.354Z,28.25
2023-05-05T10:58:21.345Z,25.21
2023-05-05T10:59:21.306Z,31.96
2023-05-05T11:00:21.321Z,33.97
2023-05-05T11:01:21.418Z,39.01
2023-05-05T11:02:21.464Z,41.81
2023-05-05T11:03:21.524Z,36.39
2023-05-05T11:04:21.585Z,35.99
2023-05-05T11:05:21.664Z,41.78
2023-05-05T11:06:21.635Z,40.44
2023-05-05T11:07:21.640Z,40.08
2023-05-05T11:08:21.669Z,39.24
2023-05-05T11:09:21.691Z,32.90
2023-05-05T11:10:21.804Z,31.05
2023-05-05T11:11:21.844Z,22.97
2023-05-05T11:12:21.881Z,25.13
2023-05-05T11:13:21.952Z,26.02
2023-05-05T11:14:21.911Z,30.29
2023-05-05T11:15:21.958Z,37.28
2023-05-05T11:16:22.033Z,43.15
2023-05-05T11:17:22.022Z,44.36
2023-05-05T11:18:22.057Z,42.31
2023-05-05T11:19:22.061Z,47.22
2023-05-05T11:20:22.217Z,53.81
2023-05-05T11:21:22.133Z,55.14
2023-05-05T11:22:22.099Z,64.94
2023-05-05T11:23:22.178Z,65.89
2023-05-05T11:24:22.140Z,70.90
2023-05-05T11:25:22.154Z,75.64
2023-05-05T11:26:22.171Z,88.90
2023-05-05T11:27:22.174Z,100.37
2023-05-05T11:28:22.571Z,114.77
2023-05-05T11:29:22.191Z,127.18
2023-05-05T11:30:22.200Z,132.09
2023-05-05T11:31:22.278Z,116.85
2023-05-05T11:32:22.225Z,100.67
2023-05-05T11:33:22.544Z,101.53
2023-05-05T11:34:22.214Z,111.14
2023-05-05T11:35:22.216Z,120.53
2023-05-05T11:36:22.300Z,137.17
2023-05-05T11:37:22.304Z,154.85
2023-05-05T11:38:22.243Z,163.12
2023-05-05T11:39:22.293Z,168.04
2023-05-05T11:40:22.272Z,165.28
2023-05-05T11:41:22.310Z,169.11
2023-05-05T11:42:22.362Z,133.86
2023-05-05T11:43:22.513Z,116.85
2023-05-05T11:44:22.425Z,96.33
2023-05-05T11:45:22.419Z,110.48
2023-05-05T11:46:22.552Z,124.45
2023-05-05T11:47:22.533Z,135.11
2023-05-05T11:48:22.570Z,129.19
2023-05-05T11:49:22.617Z,123.41
2023-05-05T11:50:22.694Z,128.81
2023-05-05T11:51:22.677Z,124.44
2023-05-05T11:52:22.808Z,77.57
2023-05-05T11:53:22.779Z,77.78
2023-05-05T11:54:22.815Z,85.30
2023-05-05T11:55:22.892Z,100.46
2023-05-05T11:56:22.927Z,116.71
2023-05-05T11:57:22.985Z,119.54
2023-05-05T11:58:22.994Z,128.10
2023-05-05T11:59:23.049Z,131.91
2023-05-05T12:00:23.125Z,131.99
2023-05-05T12:01:23.165Z,130.27
2023-05-05T12:02:24.111Z,128.77
2023-05-05T12:03:23.412Z,119.56
2023-05-05T12:04:23.336Z,126.48
2023-05-05T12:05:23.316Z,131.24
2023-05-05T12:06:23.338Z,131.87
2023-05-05T12:07:23.425Z,129.50
2023-05-05T12:08:23.515Z,126.91
2023-05-05T12:09:23.485Z,119.37
2023-05-05T12:10:23.544Z,110.93
2023-05-05T12:11:23.595Z,112.39
2023-05-05T12:12:23.646Z,108.75
2023-05-05T12:13:23.724Z,104.01
2023-05-05T12:14:23.755Z,99.50
2023-05-05T12:15:23.776Z,100.28
2023-05-05T12:16:23.886Z,98.86
2023-05-05T12:17:23.943Z,98.62
2023-05-05T12:18:23.926Z,93.04
2023-05-05T12:19:23.953Z,87.08
2023-05-05T12:20:24.034Z,84.39
2023-05-05T12:21:24.049Z,80.79
2023-05-05T12:22:24.152Z,82.49
2023-05-05T12:23:24.144Z,83.18
2023-05-05T12:24:24.156Z,84.56
2023-05-05T12:25:24.219Z,86.48
2023-05-05T12:26:24.251Z,87.49
2023-05-05T12:27:24.384Z,85.43
2023-05-05T12:28:24.369Z,78.60
2023-05-05T12:29:24.405Z,70.55
2023-05-05T12:30:24.451Z,69.57
2023-05-05T12:31:24.495Z,72.66
2023-05-05T12:32:24.562Z,76.16
2023-05-05T12:33:24.577Z,74.66
2023-05-05T12:34:24.607Z,72.78
2023-05-05T12:35:24.637Z,66.29
2023-05-05T12:36:24.725Z,56.46
2023-05-05T12:37:24.746Z,51.63
2023-05-05T12:38:24.810Z,55.36
2023-05-05T12:39:24.836Z,58.87
2023-05-05T12:40:24.877Z,57.27
2023-05-05T12:41:24.933Z,53.81
2023-05-05T12:42:24.950Z,52.03
2023-05-05T12:43:25.000Z,47.92
2023-05-05T12:44:25.060Z,49.64
2023-05-05T12:45:25.093Z,46.55
2023-05-05T12:46:25.217Z,45.59
2023-05-05T12:47:25.227Z,43.88
2023-05-05T12:48:25.224Z,43.27
2023-05-05T12:49:25.305Z,40.78
2023-05-05T12:50:25.308Z,44.41
2023-05-05T12:51:25.359Z,49.32
2023-05-05T12:52:25.432Z,53.43
2023-05-05T12:53:25.440Z,60.40
2023-05-05T12:54:25.508Z,64.95
2023-05-05T12:55:25.525Z,68.28
2023-05-05T12:56:25.665Z,70.19
2023-05-05T12:57:25.611Z,74.03
2023-05-05T12:58:25.668Z,72.32
2023-05-05T12:59:25.715Z,70.27
2023-05-05T13:00:25.765Z,63.36
2023-05-05T13:01:25.837Z,63.78
2023-05-05T13:02:25.843Z,68.04
2023-05-05T13:03:25.878Z,66.80
2023-05-05T13:04:25.887Z,64.02
2023-05-05T13:05:26.564Z,60.02
2023-05-05T13:06:25.947Z,60.02
2023-05-05T13:07:25.975Z,60.80
2023-05-05T13:08:25.997Z,64.56
2023-05-05T13:09:26.021Z,64.99